createdAt,value
2018-02-27T00:01:14.828Z,6.80
2018-02-27T00:03:43.096Z,5.33
2018-02-27T00:06:11.376Z,5.93
2018-02-27T00:08:39.655Z,5.05
2018-02-27T00:11:07.920Z,4.10
2018-02-27T00:13:36.208Z,6.22
2018-02-27T00:16:04.473Z,3.92
2018-02-27T00:18:32.745Z,5.50
2018-02-27T00:21:01.024Z,6.60
2018-02-27T00:23:29.293Z,3.25
2018-02-27T00:25:57.578Z,6.83
2018-02-27T00:28:25.853Z,6.83
2018-02-27T00:30:54.132Z,5.50
2018-02-27T00:33:22.505Z,6.60
2018-02-27T00:35:50.769Z,5.83
2018-02-27T00:38:19.054Z,13.07
2018-02-27T00:40:47.333Z,5.43
2018-02-27T00:43:15.614Z,5.25
2018-02-27T00:45:43.886Z,6.77
2018-02-27T00:48:12.147Z,7.03
2018-02-27T00:50:40.433Z,6.62
2018-02-27T00:53:08.717Z,7.20
2018-02-27T00:55:37.000Z,8.60
2018-02-27T00:58:05.284Z,6.22
2018-02-27T01:00:33.643Z,5.40
2018-02-27T01:03:01.934Z,10.55
2018-02-27T01:05:30.192Z,5.67
2018-02-27T01:07:58.461Z,5.90
2018-02-27T01:10:26.745Z,6.07
2018-02-27T01:12:55.004Z,7.13
2018-02-27T01:15:23.284Z,7.30
2018-02-27T01:17:51.547Z,4.22
2018-02-27T01:20:19.825Z,5.40
2018-02-27T01:22:48.885Z,5.22
2018-02-27T01:25:17.328Z,4.47
2018-02-27T01:27:45.603Z,5.53
2018-02-27T01:30:13.880Z,6.55
2018-02-27T01:32:42.157Z,6.35
2018-02-27T01:35:10.448Z,4.82
2018-02-27T01:37:38.720Z,5.00
2018-02-27T01:40:07.001Z,4.37
2018-02-27T01:42:35.280Z,5.95
2018-02-27T01:45:04.356Z,6.30
2018-02-27T01:47:32.644Z,5.07
2018-02-27T01:50:00.940Z,7.90
2018-02-27T01:52:29.287Z,6.10
2018-02-27T01:54:57.572Z,5.05
2018-02-27T01:57:25.842Z,4.93
2018-02-27T01:59:54.140Z,6.75
2018-02-27T02:02:22.403Z,5.23
2018-02-27T02:04:50.696Z,5.43
2018-02-27T02:07:18.963Z,5.00
2018-02-27T02:09:47.240Z,6.40
2018-02-27T02:12:15.512Z,6.37
2018-02-27T02:14:43.780Z,6.82
2018-02-27T02:17:12.148Z,5.60
2018-02-27T02:19:40.436Z,6.05
2018-02-27T02:22:08.717Z,7.80
2018-02-27T02:24:36.990Z,6.18
2018-02-27T02:27:05.269Z,6.67
2018-02-27T02:29:33.569Z,6.57
2018-02-27T02:32:01.833Z,5.30
2018-02-27T02:34:30.135Z,7.10
2018-02-27T02:36:59.172Z,6.03
2018-02-27T02:39:27.469Z,7.68
2018-02-27T02:55:37.839Z,6.53
2018-02-27T02:58:06.134Z,6.30
2018-02-27T03:00:35.273Z,6.60
2018-02-27T03:03:03.559Z,7.37
2018-02-27T03:05:31.824Z,8.13
2018-02-27T03:08:00.123Z,7.20
2018-02-27T03:10:28.416Z,8.13
2018-02-27T03:12:56.692Z,13.93
2018-02-27T03:15:24.968Z,5.90
2018-02-27T03:17:53.234Z,5.22
2018-02-27T03:20:21.533Z,7.75
2018-02-27T03:22:49.792Z,9.50
2018-02-27T03:25:18.067Z,9.80
2018-02-27T03:27:46.346Z,7.03
2018-02-27T03:30:14.644Z,6.03
2018-02-27T03:32:43.691Z,8.65
2018-02-27T03:35:11.972Z,6.78
2018-02-27T03:37:40.236Z,9.52
2018-02-27T03:40:08.516Z,7.80
2018-02-27T03:42:36.787Z,8.50
2018-02-27T03:45:06.304Z,5.30
2018-02-27T03:47:34.576Z,8.13
2018-02-27T03:50:02.841Z,5.65
2018-02-27T03:52:31.119Z,9.93
2018-02-27T03:54:59.391Z,7.80
2018-02-27T03:57:27.673Z,9.00
2018-02-27T03:59:56.048Z,7.30
2018-02-27T04:02:24.311Z,7.07
2018-02-27T04:04:52.592Z,9.23
2018-02-27T04:07:20.855Z,6.73
2018-02-27T04:09:49.134Z,8.50
2018-02-27T04:12:17.404Z,9.53
2018-02-27T04:14:45.679Z,7.50
2018-02-27T04:17:13.972Z,5.83
2018-02-27T04:19:42.236Z,11.60
2018-02-27T04:22:10.511Z,7.40
2018-02-27T04:24:38.787Z,12.15
2018-02-27T04:27:07.061Z,7.10
2018-02-27T04:29:35.334Z,11.65
2018-02-27T04:32:04.433Z,6.70
2018-02-27T04:34:32.704Z,7.37
2018-02-27T04:37:01.724Z,7.37
2018-02-27T04:39:30.015Z,7.90
2018-02-27T04:41:58.272Z,11.00
2018-02-27T04:44:26.648Z,7.75
2018-02-27T04:46:54.908Z,13.83
2018-02-27T04:49:23.175Z,9.75
2018-02-27T04:51:52.227Z,8.48
2018-02-27T04:54:20.489Z,7.18
2018-02-27T04:56:48.789Z,13.90
2018-02-27T04:59:17.056Z,11.30
2018-02-27T05:01:45.401Z,8.43
2018-02-27T05:04:13.701Z,7.22
2018-02-27T05:06:42.052Z,7.23
2018-02-27T05:09:10.339Z,7.78
2018-02-27T05:11:38.626Z,9.50
2018-02-27T05:14:06.911Z,7.80
2018-02-27T05:16:35.200Z,10.27
2018-02-27T05:19:03.544Z,12.18
2018-02-27T05:21:31.879Z,10.57
2018-02-27T05:24:00.915Z,9.20
2018-02-27T05:26:29.215Z,7.63
2018-02-27T05:28:57.488Z,12.82
2018-02-27T05:31:25.788Z,8.97
2018-02-27T05:33:54.050Z,6.75
2018-02-27T05:36:22.319Z,7.87
2018-02-27T05:38:50.621Z,8.10
2018-02-27T05:41:18.888Z,8.87
2018-02-27T05:43:47.170Z,9.13
2018-02-27T05:46:15.447Z,10.73
2018-02-27T05:48:43.708Z,9.00
2018-02-27T05:51:12.004Z,10.20
2018-02-27T05:53:41.028Z,8.10
2018-02-27T05:56:09.316Z,11.70
2018-02-27T05:58:37.573Z,8.70
2018-02-27T06:01:05.839Z,8.93
2018-02-27T06:03:34.890Z,11.75
2018-02-27T06:06:03.152Z,10.87
2018-02-27T06:08:31.414Z,8.15
2018-02-27T06:10:59.689Z,8.93
2018-02-27T06:13:27.948Z,7.28
2018-02-27T06:15:56.208Z,8.17
2018-02-27T06:18:25.265Z,10.65
2018-02-27T06:20:54.325Z,8.90
2018-02-27T06:23:22.597Z,8.63
2018-02-27T06:25:50.886Z,7.27
2018-02-27T06:28:19.147Z,10.90
2018-02-27T06:30:47.421Z,7.72
2018-02-27T06:33:15.688Z,7.53
2018-02-27T06:35:43.964Z,9.03
2018-02-27T06:38:12.254Z,25.10
2018-02-27T06:40:40.520Z,10.10
2018-02-27T06:43:08.787Z,10.95
2018-02-27T06:45:37.081Z,10.33
2018-02-27T06:48:05.346Z,12.98
2018-02-27T06:50:33.620Z,23.02
2018-02-27T06:53:01.905Z,8.35
2018-02-27T06:55:30.192Z,10.23
2018-02-27T06:57:58.458Z,7.87
2018-02-27T07:00:26.793Z,8.63
2018-02-27T07:02:55.941Z,10.27
2018-02-27T07:05:24.213Z,11.75
2018-02-27T07:07:52.498Z,11.68
2018-02-27T07:10:20.927Z,9.55
2018-02-27T07:12:49.148Z,10.77
2018-02-27T07:15:17.431Z,10.88
2018-02-27T07:17:45.767Z,11.40
2018-02-27T07:20:14.803Z,9.73
2018-02-27T07:22:43.173Z,7.10
2018-02-27T07:25:11.470Z,8.52
2018-02-27T07:27:39.760Z,7.85
2018-02-27T07:30:08.078Z,8.23
2018-02-27T07:32:36.295Z,10.32
2018-02-27T07:35:04.584Z,11.05
2018-02-27T07:37:32.868Z,6.68
2018-02-27T07:40:01.202Z,8.18
2018-02-27T07:42:29.480Z,9.93
2018-02-27T07:44:57.754Z,7.60
2018-02-27T07:47:26.028Z,7.93
2018-02-27T07:49:54.312Z,7.05
2018-02-27T07:52:22.585Z,11.80
2018-02-27T07:54:50.852Z,9.23
2018-02-27T07:57:19.129Z,7.10
2018-02-27T07:59:47.390Z,7.43
2018-02-27T08:02:15.684Z,5.07
2018-02-27T08:04:43.969Z,9.32
2018-02-27T08:07:12.236Z,7.30
2018-02-27T08:09:41.271Z,11.95
2018-02-27T08:12:09.563Z,8.97
2018-02-27T08:14:38.603Z,9.50
2018-02-27T08:17:06.855Z,15.57
2018-02-27T08:19:35.140Z,5.87
2018-02-27T08:22:03.444Z,10.15
2018-02-27T08:24:31.728Z,4.97
2018-02-27T08:27:00.081Z,7.43
2018-02-27T08:29:28.339Z,7.75
2018-02-27T08:31:56.604Z,4.47
2018-02-27T08:34:25.656Z,6.55
2018-02-27T08:36:53.911Z,5.07
2018-02-27T08:39:22.186Z,10.20
2018-02-27T08:41:50.476Z,8.63
2018-02-27T08:44:18.768Z,8.85
2018-02-27T08:46:47.032Z,7.10
2018-02-27T08:49:15.312Z,6.80
2018-02-27T08:51:43.580Z,13.13
2018-02-27T08:54:11.934Z,9.63
2018-02-27T08:56:40.210Z,6.90
2018-02-27T08:59:08.464Z,8.70
2018-02-27T09:01:37.511Z,3.93
2018-02-27T09:04:05.787Z,4.78
2018-02-27T09:06:34.090Z,6.23
2018-02-27T09:09:03.123Z,13.15
2018-02-27T09:11:31.424Z,5.20
2018-02-27T09:13:59.692Z,5.28
2018-02-27T09:16:27.955Z,6.50
2018-02-27T09:18:56.229Z,6.10
2018-02-27T09:21:24.484Z,3.73
2018-02-27T09:23:52.787Z,6.20
2018-02-27T09:26:21.868Z,5.70
2018-02-27T09:28:50.136Z,3.70
2018-02-27T09:31:18.432Z,4.47
2018-02-27T09:33:46.708Z,1.95
2018-02-27T09:36:14.964Z,3.77
2018-02-27T09:38:43.282Z,4.13
2018-02-27T09:41:11.636Z,6.10
2018-02-27T09:43:39.906Z,4.70
2018-02-27T09:46:08.172Z,4.20
2018-02-27T09:48:36.468Z,4.37
2018-02-27T09:51:04.738Z,3.23
2018-02-27T09:53:33.764Z,2.80
2018-02-27T09:56:02.047Z,5.13
2018-02-27T09:58:30.313Z,3.80
2018-02-27T10:00:58.590Z,4.17
2018-02-27T10:03:26.865Z,3.27
2018-02-27T10:05:55.221Z,3.73
2018-02-27T10:08:23.501Z,3.20
2018-02-27T10:10:51.882Z,3.90
2018-02-27T10:13:20.148Z,4.53
2018-02-27T10:15:48.404Z,3.83
2018-02-27T10:18:16.700Z,4.27
2018-02-27T10:20:45.801Z,3.90
2018-02-27T10:23:14.061Z,3.17
2018-02-27T10:25:42.342Z,4.00
2018-02-27T10:28:10.608Z,4.63
2018-02-27T10:30:38.898Z,3.20
2018-02-27T10:33:07.175Z,4.80
2018-02-27T10:35:35.559Z,3.30
2018-02-27T10:38:03.836Z,3.03
2018-02-27T10:40:32.117Z,1.70
2018-02-27T10:43:00.376Z,2.60
2018-02-27T10:45:28.636Z,3.33
2018-02-27T10:47:56.936Z,1.73
2018-02-27T10:50:25.214Z,1.80
2018-02-27T10:52:53.489Z,5.57
2018-02-27T10:55:21.764Z,2.10
2018-02-27T10:57:50.037Z,1.77
2018-02-27T11:00:23.776Z,3.63
2018-02-27T11:02:52.053Z,3.60
2018-02-27T11:05:20.316Z,7.15
2018-02-27T11:07:48.588Z,1.50
2018-02-27T11:10:16.861Z,5.83
2018-02-27T11:12:45.221Z,1.77
2018-02-27T11:15:13.503Z,3.57
2018-02-27T11:17:41.763Z,4.70
2018-02-27T11:20:10.028Z,1.97
2018-02-27T11:22:39.150Z,1.37
2018-02-27T11:25:07.428Z,2.17
2018-02-27T11:27:35.679Z,2.27
2018-02-27T11:30:03.960Z,2.10
2018-02-27T11:32:32.218Z,2.07
2018-02-27T11:35:01.345Z,2.30
2018-02-27T11:37:29.720Z,2.83
2018-02-27T11:39:57.976Z,3.27
2018-02-27T11:42:26.273Z,3.80
2018-02-27T11:44:54.575Z,2.60
2018-02-27T11:47:22.835Z,1.80
2018-02-27T11:49:51.097Z,2.70
2018-02-27T11:52:19.384Z,2.97
2018-02-27T11:54:47.638Z,3.20
2018-02-27T11:57:15.945Z,1.80
2018-02-27T11:59:44.228Z,2.37
2018-02-27T12:02:12.513Z,3.00
2018-02-27T12:04:40.780Z,6.03
2018-02-27T12:07:09.073Z,2.43
2018-02-27T12:09:37.336Z,2.40
2018-02-27T12:12:05.592Z,1.80
2018-02-27T12:14:33.856Z,1.57
2018-02-27T12:17:02.150Z,5.90
2018-02-27T12:19:30.400Z,2.13
2018-02-27T12:21:58.680Z,3.33
2018-02-27T12:24:26.936Z,2.20
2018-02-27T12:26:55.957Z,1.50
2018-02-27T12:29:24.232Z,1.60
2018-02-27T12:31:52.499Z,3.33
2018-02-27T12:34:20.755Z,4.43
2018-02-27T12:36:49.792Z,1.53
2018-02-27T12:39:18.156Z,3.27
2018-02-27T12:41:46.399Z,3.15
2018-02-27T12:44:15.431Z,3.30
2018-02-27T12:46:43.716Z,2.47
2018-02-27T12:49:11.992Z,3.65
2018-02-27T12:51:40.356Z,2.00
2018-02-27T12:54:08.611Z,2.20
2018-02-27T12:56:36.887Z,3.25
2018-02-27T12:59:05.912Z,1.67
2018-02-27T13:01:34.155Z,1.13
2018-02-27T13:04:02.400Z,1.77
2018-02-27T13:06:30.736Z,1.83
2018-02-27T13:08:59.003Z,0.97
2018-02-27T13:11:27.284Z,1.13
2018-02-27T13:13:55.552Z,2.00
2018-02-27T13:16:23.837Z,2.03
2018-02-27T13:18:52.085Z,2.40
2018-02-27T13:21:20.363Z,2.20
2018-02-27T13:23:49.480Z,0.90
2018-02-27T13:26:17.753Z,2.73
2018-02-27T13:28:46.025Z,1.50
2018-02-27T13:31:14.288Z,1.87
2018-02-27T13:33:43.321Z,1.70
2018-02-27T13:36:11.683Z,1.60
2018-02-27T13:38:39.954Z,3.63
2018-02-27T13:41:08.233Z,4.97
2018-02-27T13:43:36.504Z,1.73
2018-02-27T13:46:04.780Z,3.07
2018-02-27T13:48:33.084Z,2.40
2018-02-27T13:51:02.162Z,1.43
2018-02-27T13:53:30.424Z,1.70
2018-02-27T13:55:58.716Z,2.60
2018-02-27T13:58:26.943Z,1.27
2018-02-27T14:00:55.984Z,2.87
2018-02-27T14:03:24.248Z,1.37
2018-02-27T14:05:52.530Z,2.20
2018-02-27T14:08:20.916Z,2.40
2018-02-27T14:10:49.167Z,1.47
2018-02-27T14:13:17.457Z,2.20
2018-02-27T14:15:45.738Z,2.20
2018-02-27T14:18:13.993Z,3.50
2018-02-27T14:20:42.305Z,1.40
2018-02-27T14:23:10.576Z,2.30
2018-02-27T14:25:38.846Z,2.03
2018-02-27T14:28:07.103Z,1.60
2018-02-27T14:30:35.370Z,5.53
2018-02-27T14:33:03.657Z,1.40
2018-02-27T14:35:31.927Z,1.43
2018-02-27T14:38:00.198Z,3.50
2018-02-27T14:40:28.472Z,3.20
2018-02-27T14:42:57.509Z,2.40
2018-02-27T14:45:25.775Z,1.97
2018-02-27T14:47:54.036Z,3.20
2018-02-27T14:50:22.283Z,1.53
2018-02-27T14:52:51.315Z,3.60
2018-02-27T14:55:19.580Z,3.10
2018-02-27T14:57:47.845Z,8.77
2018-02-27T15:00:17.272Z,7.30
2018-02-27T15:02:45.520Z,12.37
2018-02-27T15:05:13.803Z,2.10
2018-02-27T15:07:42.053Z,1.87
2018-02-27T15:10:11.074Z,2.63
2018-02-27T15:12:39.340Z,2.97
2018-02-27T15:15:07.628Z,1.53
2018-02-27T15:17:35.908Z,2.40
2018-02-27T15:20:04.168Z,1.60
2018-02-27T15:22:32.424Z,1.63
2018-02-27T15:25:01.460Z,3.63
2018-02-27T15:27:29.715Z,1.17
2018-02-27T15:29:57.973Z,1.83
2018-02-27T15:32:27.016Z,1.90
2018-02-27T15:34:55.265Z,1.27
2018-02-27T15:37:23.532Z,2.33
2018-02-27T15:39:51.803Z,5.73
2018-02-27T15:42:20.821Z,6.73
2018-02-27T15:44:49.071Z,7.63
2018-02-27T15:47:18.184Z,1.57
2018-02-27T15:49:46.487Z,1.40
2018-02-27T15:52:14.724Z,3.63
2018-02-27T15:54:42.991Z,2.03
2018-02-27T15:57:12.016Z,2.00
2018-02-27T15:59:40.268Z,4.13
2018-02-27T16:02:08.561Z,4.40
2018-02-27T16:04:36.856Z,4.10
2018-02-27T16:07:05.104Z,5.60
2018-02-27T16:09:33.377Z,2.83
2018-02-27T16:12:01.679Z,3.23
2018-02-27T16:14:29.951Z,11.03
2018-02-27T16:16:58.206Z,5.60
2018-02-27T16:19:26.485Z,9.90
2018-02-27T16:21:54.751Z,3.27
2018-02-27T16:24:23.008Z,4.67
2018-02-27T16:26:52.157Z,2.60
2018-02-27T16:29:20.429Z,3.87
2018-02-27T16:31:48.702Z,2.70
2018-02-27T16:34:16.976Z,1.40
2018-02-27T16:36:45.312Z,3.50
2018-02-27T16:39:14.346Z,3.07
2018-02-27T16:41:42.622Z,3.87
2018-02-27T16:44:10.958Z,3.40
2018-02-27T16:46:40.602Z,2.80
2018-02-27T16:49:08.941Z,7.30
2018-02-27T16:51:37.980Z,14.63
2018-02-27T16:54:06.280Z,5.87
2018-02-27T16:56:34.620Z,2.83
2018-02-27T16:59:02.901Z,4.93
2018-02-27T17:01:31.172Z,4.77
2018-02-27T17:03:59.463Z,3.63
2018-02-27T17:06:27.780Z,7.40
2018-02-27T17:08:56.060Z,4.90
2018-02-27T17:11:24.344Z,3.17
2018-02-27T17:13:53.507Z,4.33
2018-02-27T17:16:21.861Z,2.77
2018-02-27T17:18:50.281Z,7.00
2018-02-27T17:21:19.084Z,9.37
2018-02-27T17:23:47.503Z,5.03
2018-02-27T17:26:16.091Z,8.07
2018-02-27T17:28:44.447Z,7.90
2018-02-27T17:31:14.297Z,2.77
2018-02-27T17:33:44.136Z,7.63
2018-02-27T17:36:14.171Z,7.30
2018-02-27T17:38:44.077Z,6.53
2018-02-27T17:41:14.259Z,11.88
2018-02-27T17:43:44.023Z,9.40
2018-02-27T17:46:13.856Z,12.57
2018-02-27T17:48:44.466Z,6.83
2018-02-27T17:51:14.332Z,5.80
2018-02-27T17:53:44.425Z,2.93
2018-02-27T17:56:15.089Z,3.33
2018-02-27T17:58:45.143Z,6.10
2018-02-27T18:01:15.198Z,3.72
2018-02-27T18:03:45.972Z,9.93
2018-02-27T18:06:15.963Z,8.87
2018-02-27T18:08:45.835Z,7.70
2018-02-27T18:11:15.694Z,5.60
2018-02-27T18:13:45.537Z,17.80
2018-02-27T18:16:15.400Z,49.60
2018-02-27T18:18:46.089Z,36.13
2018-02-27T18:21:15.917Z,14.48
2018-02-27T18:23:45.799Z,7.83
2018-02-27T18:26:15.816Z,6.20
2018-02-27T18:28:45.877Z,5.50
2018-02-27T18:31:15.841Z,8.90
2018-02-27T18:33:45.966Z,8.33
2018-02-27T18:36:15.851Z,6.60
2018-02-27T18:38:45.940Z,5.53
2018-02-27T18:41:16.035Z,5.12
2018-02-27T18:43:46.202Z,3.70
2018-02-27T18:46:16.293Z,6.97
2018-02-27T18:48:46.338Z,5.50
2018-02-27T18:51:16.267Z,9.10
2018-02-27T18:53:45.683Z,3.17
2018-02-27T18:56:14.966Z,8.50
2018-02-27T18:58:45.617Z,16.10
2018-02-27T19:01:17.413Z,33.63
2018-02-27T19:03:48.196Z,29.03
2018-02-27T19:06:18.149Z,15.60
2018-02-27T19:08:48.133Z,7.53
2018-02-27T19:11:18.060Z,3.67
2018-02-27T19:13:48.891Z,7.72
2018-02-27T19:16:18.785Z,6.40
2018-02-27T19:18:48.983Z,3.03
2018-02-27T19:21:19.638Z,6.20
2018-02-27T19:23:49.605Z,7.40
2018-02-27T19:26:20.017Z,4.17
2018-02-27T19:28:49.980Z,6.00
2018-02-27T19:31:20.506Z,3.50
2018-02-27T19:33:50.788Z,4.18
2018-02-27T19:36:21.816Z,4.40
2018-02-27T19:38:51.853Z,5.72
2018-02-27T19:41:22.514Z,3.00
2018-02-27T19:43:53.325Z,2.60
2018-02-27T19:46:23.164Z,2.80
2018-02-27T19:48:54.583Z,5.03
2018-02-27T19:51:25.039Z,2.60
2018-02-27T19:53:55.128Z,5.07
2018-02-27T19:56:25.121Z,6.78
2018-02-27T19:58:56.561Z,6.53
2018-02-27T20:01:26.494Z,10.43
2018-02-27T20:03:56.594Z,13.13
2018-02-27T20:06:25.954Z,3.70
2018-02-27T20:08:56.849Z,3.90
2018-02-27T20:11:27.267Z,5.03
2018-02-27T20:13:56.943Z,5.18
2018-02-27T20:16:27.543Z,3.55
2018-02-27T20:18:56.904Z,3.03
2018-02-27T20:21:27.618Z,4.13
2018-02-27T20:24:02.920Z,3.30
2018-02-27T20:26:32.856Z,4.67
2018-02-27T20:29:07.970Z,2.22
2018-02-27T20:31:38.040Z,2.33
2018-02-27T20:34:07.462Z,4.97
2018-02-27T20:36:37.308Z,3.90
2018-02-27T20:39:29.000Z,4.68
2018-02-27T20:41:58.889Z,4.20
2018-02-27T20:44:28.870Z,6.28
2018-02-27T20:46:59.199Z,8.50
2018-02-27T20:49:29.396Z,8.23
2018-02-27T20:51:58.699Z,8.00
2018-02-27T20:54:28.840Z,8.80
2018-02-27T20:56:58.887Z,7.13
2018-02-27T20:59:28.295Z,10.35
2018-02-27T21:01:57.699Z,5.57
2018-02-27T21:04:27.246Z,4.53
2018-02-27T21:06:56.693Z,2.53
2018-02-27T21:09:26.093Z,4.20
2018-02-27T21:11:55.438Z,5.97
2018-02-27T21:14:24.740Z,3.92
2018-02-27T21:16:54.303Z,5.43
2018-02-27T21:19:23.596Z,2.40
2018-02-27T21:21:53.795Z,4.20
2018-02-27T21:24:23.833Z,4.20
2018-02-27T21:26:54.026Z,4.17
2018-02-27T21:29:23.369Z,5.97
2018-02-27T21:31:52.651Z,3.67
2018-02-27T21:34:22.820Z,6.03
2018-02-27T21:36:52.133Z,5.63
2018-02-27T21:39:21.551Z,3.67
2018-02-27T21:41:50.890Z,3.03
2018-02-27T21:44:20.237Z,2.80
2018-02-27T21:46:49.550Z,2.77
2018-02-27T21:49:18.943Z,5.70
2018-02-27T21:51:48.230Z,3.30
2018-02-27T21:54:18.423Z,3.10
2018-02-27T21:56:47.688Z,3.80
2018-02-27T21:59:17.869Z,3.92
2018-02-27T22:01:47.151Z,3.97
2018-02-27T22:04:16.326Z,7.30
2018-02-27T22:06:46.266Z,9.80
2018-02-27T22:09:15.366Z,6.75
2018-02-27T22:11:44.484Z,7.40
2018-02-27T22:14:13.469Z,9.75
2018-02-27T22:16:42.283Z,9.87
2018-02-27T22:19:10.893Z,12.65
2018-02-27T22:21:39.304Z,9.20
2018-02-27T22:24:07.647Z,9.00
2018-02-27T22:26:35.928Z,10.50
2018-02-27T22:29:04.196Z,8.90
2018-02-27T22:31:33.228Z,8.43
2018-02-27T22:34:01.493Z,7.55
2018-02-27T22:36:29.776Z,6.87
2018-02-27T22:38:58.057Z,8.07
2018-02-27T22:41:26.343Z,7.77
2018-02-27T22:43:54.607Z,6.97
2018-02-27T22:46:22.891Z,6.10
2018-02-27T22:48:51.156Z,7.00
2018-02-27T22:51:19.496Z,19.33
2018-02-27T22:53:47.756Z,3.20
2018-02-27T22:56:16.038Z,5.30
2018-02-27T22:58:44.313Z,5.40
2018-02-27T23:01:12.577Z,3.10
2018-02-27T23:03:41.616Z,4.40
2018-02-27T23:06:09.896Z,3.60
2018-02-27T23:08:38.152Z,3.55
2018-02-27T23:11:06.416Z,5.50
2018-02-27T23:13:34.701Z,7.55
2018-02-27T23:16:02.966Z,4.40
2018-02-27T23:18:31.228Z,7.12
2018-02-27T23:21:00.278Z,4.73
2018-02-27T23:23:28.547Z,5.90
2018-02-27T23:26:05.390Z,6.47
2018-02-27T23:28:35.152Z,6.90
2018-02-27T23:31:03.497Z,3.70
2018-02-27T23:33:42.839Z,7.65
2018-02-27T23:36:11.099Z,4.67
2018-02-27T23:38:39.368Z,8.02
2018-02-27T23:41:07.648Z,5.47
2018-02-27T23:43:35.942Z,6.10
2018-02-27T23:46:04.231Z,4.70
2018-02-27T23:48:32.490Z,6.97
2018-02-27T23:51:00.766Z,4.80
2018-02-27T23:53:29.025Z,5.57
2018-02-27T23:55:57.297Z,7.50
2018-02-27T23:58:25.588Z,4.32
